sensor_id;sensor_type;location;lat;lon;timestamp;P1;durP1;ratioP1;P2;durP2;ratioP2
57389;SDS011;43217;52.694;6.214;2024-01-07T00:01:01;26.10;;;21.30;;
57389;SDS011;43217;52.694;6.214;2024-01-07T00:03:27;28.33;;;22.75;;
57389;SDS011;43217;52.694;6.214;2024-01-07T00:05:52;24.70;;;20.38;;
57389;SDS011;43217;52.694;6.214;2024-01-07T00:08:18;26.15;;;21.77;;
57389;SDS011;43217;52.694;6.214;2024-01-07T00:10:44;26.33;;;22.15;;
57389;SDS011;43217;52.694;6.214;2024-01-07T00:13:09;25.27;;;21.83;;
57389;SDS011;43217;52.694;6.214;2024-01-07T00:15:35;25.52;;;21.35;;
57389;SDS011;43217;52.694;6.214;2024-01-07T00:18:00;24.63;;;21.13;;
57389;SDS011;43217;52.694;6.214;2024-01-07T00:20:26;25.15;;;22.02;;
57389;SDS011;43217;52.694;6.214;2024-01-07T00:22:51;26.00;;;21.40;;
57389;SDS011;43217;52.694;6.214;2024-01-07T00:25:17;25.13;;;21.38;;
57389;SDS011;43217;52.694;6.214;2024-01-07T00:27:43;24.13;;;20.73;;
57389;SDS011;43217;52.694;6.214;2024-01-07T00:30:09;25.83;;;21.33;;
57389;SDS011;43217;52.694;6.214;2024-01-07T00:32:35;24.73;;;21.23;;
57389;SDS011;43217;52.694;6.214;2024-01-07T00:35:01;23.90;;;20.73;;
57389;SDS011;43217;52.694;6.214;2024-01-07T00:37:27;22.35;;;19.88;;
57389;SDS011;43217;52.694;6.214;2024-01-07T00:39:53;24.65;;;20.35;;
57389;SDS011;43217;52.694;6.214;2024-01-07T00:42:19;22.65;;;20.23;;
57389;SDS011;43217;52.694;6.214;2024-01-07T00:44:44;23.00;;;19.40;;
57389;SDS011;43217;52.694;6.214;2024-01-07T00:47:10;23.67;;;20.92;;
57389;SDS011;43217;52.694;6.214;2024-01-07T00:49:35;23.50;;;20.88;;
57389;SDS011;43217;52.694;6.214;2024-01-07T00:52:01;23.45;;;20.35;;
57389;SDS011;43217;52.694;6.214;2024-01-07T00:54:26;23.85;;;19.45;;
57389;SDS011;43217;52.694;6.214;2024-01-07T00:56:52;23.98;;;20.30;;
57389;SDS011;43217;52.694;6.214;2024-01-07T00:59:18;21.98;;;19.48;;
57389;SDS011;43217;52.694;6.214;2024-01-07T01:01:43;23.70;;;19.77;;
57389;SDS011;43217;52.694;6.214;2024-01-07T01:04:09;25.58;;;20.27;;
57389;SDS011;43217;52.694;6.214;2024-01-07T01:06:34;22.27;;;19.20;;
57389;SDS011;43217;52.694;6.214;2024-01-07T01:09:00;22.33;;;19.42;;
57389;SDS011;43217;52.694;6.214;2024-01-07T01:11:25;22.48;;;19.92;;
57389;SDS011;43217;52.694;6.214;2024-01-07T01:13:51;23.30;;;20.05;;
57389;SDS011;43217;52.694;6.214;2024-01-07T01:16:17;22.48;;;19.60;;
57389;SDS011;43217;52.694;6.214;2024-01-07T01:18:42;22.98;;;19.98;;
57389;SDS011;43217;52.694;6.214;2024-01-07T01:21:09;23.45;;;20.13;;
57389;SDS011;43217;52.694;6.214;2024-01-07T01:23:34;22.27;;;19.05;;
57389;SDS011;43217;52.694;6.214;2024-01-07T01:26:00;22.45;;;19.45;;
57389;SDS011;43217;52.694;6.214;2024-01-07T01:28:26;20.95;;;18.60;;
57389;SDS011;43217;52.694;6.214;2024-01-07T01:30:51;19.95;;;17.25;;
57389;SDS011;43217;52.694;6.214;2024-01-07T01:33:17;20.60;;;17.75;;
57389;SDS011;43217;52.694;6.214;2024-01-07T01:35:42;20.52;;;17.30;;
57389;SDS011;43217;52.694;6.214;2024-01-07T01:38:08;19.33;;;17.08;;
57389;SDS011;43217;52.694;6.214;2024-01-07T01:40:34;18.83;;;16.25;;
57389;SDS011;43217;52.694;6.214;2024-01-07T01:42:59;17.40;;;15.50;;
57389;SDS011;43217;52.694;6.214;2024-01-07T01:45:25;17.02;;;15.20;;
57389;SDS011;43217;52.694;6.214;2024-01-07T01:47:51;18.30;;;16.00;;
57389;SDS011;43217;52.694;6.214;2024-01-07T01:50:16;17.98;;;15.82;;
57389;SDS011;43217;52.694;6.214;2024-01-07T01:52:43;18.52;;;15.88;;
57389;SDS011;43217;52.694;6.214;2024-01-07T01:55:10;21.48;;;16.02;;
57389;SDS011;43217;52.694;6.214;2024-01-07T01:57:36;20.90;;;16.50;;
57389;SDS011;43217;52.694;6.214;2024-01-07T02:00:04;19.05;;;16.10;;
57389;SDS011;43217;52.694;6.214;2024-01-07T02:02:31;18.65;;;16.48;;
57389;SDS011;43217;52.694;6.214;2024-01-07T02:04:59;20.42;;;17.17;;
57389;SDS011;43217;52.694;6.214;2024-01-07T02:07:28;19.23;;;17.02;;
57389;SDS011;43217;52.694;6.214;2024-01-07T02:09:55;21.02;;;17.73;;
57389;SDS011;43217;52.694;6.214;2024-01-07T02:12:21;21.98;;;17.23;;
57389;SDS011;43217;52.694;6.214;2024-01-07T02:14:47;21.25;;;18.92;;
57389;SDS011;43217;52.694;6.214;2024-01-07T02:17:13;19.75;;;17.65;;
57389;SDS011;43217;52.694;6.214;2024-01-07T02:19:39;22.23;;;18.17;;
57389;SDS011;43217;52.694;6.214;2024-01-07T02:22:05;21.42;;;18.85;;
57389;SDS011;43217;52.694;6.214;2024-01-07T02:24:30;21.65;;;19.00;;
57389;SDS011;43217;52.694;6.214;2024-01-07T02:26:56;20.38;;;18.20;;
57389;SDS011;43217;52.694;6.214;2024-01-07T02:29:22;21.17;;;17.92;;
57389;SDS011;43217;52.694;6.214;2024-01-07T02:31:47;19.98;;;17.85;;
57389;SDS011;43217;52.694;6.214;2024-01-07T02:34:13;21.63;;;18.45;;
57389;SDS011;43217;52.694;6.214;2024-01-07T02:36:39;20.70;;;18.50;;
57389;SDS011;43217;52.694;6.214;2024-01-07T02:39:04;21.02;;;18.67;;
57389;SDS011;43217;52.694;6.214;2024-01-07T02:41:30;21.67;;;18.83;;
57389;SDS011;43217;52.694;6.214;2024-01-07T02:43:55;22.15;;;18.27;;
57389;SDS011;43217;52.694;6.214;2024-01-07T02:46:23;21.00;;;18.25;;
57389;SDS011;43217;52.694;6.214;2024-01-07T02:48:48;20.48;;;17.50;;
57389;SDS011;43217;52.694;6.214;2024-01-07T02:51:14;20.55;;;17.20;;
57389;SDS011;43217;52.694;6.214;2024-01-07T02:53:40;20.55;;;17.52;;
57389;SDS011;43217;52.694;6.214;2024-01-07T02:56:05;19.90;;;17.10;;
57389;SDS011;43217;52.694;6.214;2024-01-07T02:58:33;20.00;;;17.02;;
57389;SDS011;43217;52.694;6.214;2024-01-07T03:00:59;19.00;;;16.90;;
57389;SDS011;43217;52.694;6.214;2024-01-07T03:03:25;18.70;;;16.73;;
57389;SDS011;43217;52.694;6.214;2024-01-07T03:05:51;18.73;;;16.70;;
57389;SDS011;43217;52.694;6.214;2024-01-07T03:08:16;21.20;;;16.75;;
57389;SDS011;43217;52.694;6.214;2024-01-07T03:10:42;20.00;;;16.60;;
57389;SDS011;43217;52.694;6.214;2024-01-07T03:13:07;18.63;;;16.70;;
57389;SDS011;43217;52.694;6.214;2024-01-07T03:15:33;18.73;;;16.75;;
57389;SDS011;43217;52.694;6.214;2024-01-07T03:17:58;20.48;;;16.40;;
57389;SDS011;43217;52.694;6.214;2024-01-07T03:20:24;18.55;;;16.58;;
57389;SDS011;43217;52.694;6.214;2024-01-07T03:22:50;18.35;;;16.35;;
57389;SDS011;43217;52.694;6.214;2024-01-07T03:25:15;18.40;;;16.40;;
57389;SDS011;43217;52.694;6.214;2024-01-07T03:27:41;17.63;;;15.73;;
57389;SDS011;43217;52.694;6.214;2024-01-07T03:30:07;18.00;;;16.10;;
57389;SDS011;43217;52.694;6.214;2024-01-07T03:32:34;18.95;;;16.75;;
57389;SDS011;43217;52.694;6.214;2024-01-07T03:34:59;19.58;;;16.77;;
57389;SDS011;43217;52.694;6.214;2024-01-07T03:37:25;19.00;;;17.05;;
57389;SDS011;43217;52.694;6.214;2024-01-07T03:39:50;17.90;;;16.02;;
57389;SDS011;43217;52.694;6.214;2024-01-07T03:42:16;17.55;;;15.40;;
57389;SDS011;43217;52.694;6.214;2024-01-07T03:44:41;17.88;;;15.35;;
57389;SDS011;43217;52.694;6.214;2024-01-07T03:47:07;17.00;;;15.20;;
57389;SDS011;43217;52.694;6.214;2024-01-07T03:49:33;17.95;;;15.88;;
57389;SDS011;43217;52.694;6.214;2024-01-07T03:54:26;16.92;;;15.07;;
57389;SDS011;43217;52.694;6.214;2024-01-07T03:56:52;19.33;;;15.95;;
57389;SDS011;43217;52.694;6.214;2024-01-07T03:59:17;18.10;;;15.43;;
57389;SDS011;43217;52.694;6.214;2024-01-07T04:01:43;16.88;;;15.10;;
57389;SDS011;43217;52.694;6.214;2024-01-07T04:04:09;18.10;;;16.15;;
57389;SDS011;43217;52.694;6.214;2024-01-07T04:06:35;17.75;;;15.38;;
57389;SDS011;43217;52.694;6.214;2024-01-07T04:09:00;17.67;;;15.65;;
57389;SDS011;43217;52.694;6.214;2024-01-07T04:11:26;16.27;;;14.35;;
57389;SDS011;43217;52.694;6.214;2024-01-07T04:13:51;16.23;;;14.52;;
57389;SDS011;43217;52.694;6.214;2024-01-07T04:16:20;16.90;;;14.40;;
57389;SDS011;43217;52.694;6.214;2024-01-07T04:18:46;16.67;;;14.88;;
57389;SDS011;43217;52.694;6.214;2024-01-07T04:21:12;15.90;;;14.30;;
57389;SDS011;43217;52.694;6.214;2024-01-07T04:23:38;16.70;;;15.00;;
57389;SDS011;43217;52.694;6.214;2024-01-07T04:26:05;16.58;;;14.85;;
57389;SDS011;43217;52.694;6.214;2024-01-07T04:28:31;17.35;;;14.45;;
57389;SDS011;43217;52.694;6.214;2024-01-07T04:30:57;16.33;;;14.10;;
57389;SDS011;43217;52.694;6.214;2024-01-07T04:33:23;16.45;;;14.45;;
57389;SDS011;43217;52.694;6.214;2024-01-07T04:35:48;16.65;;;14.43;;
57389;SDS011;43217;52.694;6.214;2024-01-07T04:38:14;16.15;;;14.45;;
57389;SDS011;43217;52.694;6.214;2024-01-07T04:40:39;19.45;;;15.20;;
57389;SDS011;43217;52.694;6.214;2024-01-07T04:43:05;16.00;;;14.45;;
57389;SDS011;43217;52.694;6.214;2024-01-07T04:45:31;18.63;;;15.27;;
57389;SDS011;43217;52.694;6.214;2024-01-07T04:47:56;15.38;;;13.77;;
57389;SDS011;43217;52.694;6.214;2024-01-07T04:50:22;16.58;;;13.13;;
57389;SDS011;43217;52.694;6.214;2024-01-07T04:52:48;16.33;;;13.75;;
57389;SDS011;43217;52.694;6.214;2024-01-07T04:55:13;16.02;;;13.60;;
57389;SDS011;43217;52.694;6.214;2024-01-07T04:57:39;16.00;;;13.48;;
57389;SDS011;43217;52.694;6.214;2024-01-07T05:00:05;13.38;;;11.98;;
57389;SDS011;43217;52.694;6.214;2024-01-07T05:02:31;13.70;;;12.07;;
57389;SDS011;43217;52.694;6.214;2024-01-07T05:04:56;12.88;;;11.55;;
57389;SDS011;43217;52.694;6.214;2024-01-07T05:07:22;15.48;;;12.75;;
57389;SDS011;43217;52.694;6.214;2024-01-07T05:09:48;12.60;;;11.30;;
57389;SDS011;43217;52.694;6.214;2024-01-07T05:12:13;13.80;;;12.40;;
57389;SDS011;43217;52.694;6.214;2024-01-07T05:14:40;13.45;;;11.73;;
57389;SDS011;43217;52.694;6.214;2024-01-07T05:17:07;12.65;;;11.15;;
57389;SDS011;43217;52.694;6.214;2024-01-07T05:19:33;12.85;;;11.52;;
57389;SDS011;43217;52.694;6.214;2024-01-07T05:21:59;13.52;;;11.85;;
57389;SDS011;43217;52.694;6.214;2024-01-07T05:24:24;14.35;;;12.18;;
57389;SDS011;43217;52.694;6.214;2024-01-07T05:26:50;13.32;;;12.00;;
57389;SDS011;43217;52.694;6.214;2024-01-07T05:29:16;12.73;;;11.45;;
57389;SDS011;43217;52.694;6.214;2024-01-07T05:31:41;13.05;;;11.75;;
57389;SDS011;43217;52.694;6.214;2024-01-07T05:34:07;11.65;;;10.55;;
57389;SDS011;43217;52.694;6.214;2024-01-07T05:36:33;12.00;;;10.48;;
57389;SDS011;43217;52.694;6.214;2024-01-07T05:38:59;14.48;;;11.05;;
57389;SDS011;43217;52.694;6.214;2024-01-07T05:41:24;12.38;;;10.30;;
57389;SDS011;43217;52.694;6.214;2024-01-07T05:43:50;11.13;;;10.13;;
57389;SDS011;43217;52.694;6.214;2024-01-07T05:46:16;11.25;;;10.07;;
57389;SDS011;43217;52.694;6.214;2024-01-07T05:48:45;10.73;;;9.68;;
57389;SDS011;43217;52.694;6.214;2024-01-07T05:51:15;11.38;;;10.18;;
57389;SDS011;43217;52.694;6.214;2024-01-07T05:53:43;10.55;;;9.15;;
57389;SDS011;43217;52.694;6.214;2024-01-07T05:56:10;11.40;;;9.23;;
57389;SDS011;43217;52.694;6.214;2024-01-07T05:58:35;9.77;;;8.73;;
57389;SDS011;43217;52.694;6.214;2024-01-07T06:01:01;9.10;;;8.18;;
57389;SDS011;43217;52.694;6.214;2024-01-07T06:03:27;9.15;;;8.20;;
57389;SDS011;43217;52.694;6.214;2024-01-07T06:05:52;11.00;;;9.13;;
57389;SDS011;43217;52.694;6.214;2024-01-07T06:08:18;10.48;;;8.07;;
57389;SDS011;43217;52.694;6.214;2024-01-07T06:10:44;9.55;;;8.65;;
57389;SDS011;43217;52.694;6.214;2024-01-07T06:13:09;9.82;;;8.18;;
57389;SDS011;43217;52.694;6.214;2024-01-07T06:15:35;8.07;;;7.28;;
57389;SDS011;43217;52.694;6.214;2024-01-07T06:18:01;7.97;;;7.18;;
57389;SDS011;43217;52.694;6.214;2024-01-07T06:20:26;8.93;;;7.82;;
57389;SDS011;43217;52.694;6.214;2024-01-07T06:22:53;8.35;;;7.50;;
57389;SDS011;43217;52.694;6.214;2024-01-07T06:25:18;8.93;;;7.20;;
57389;SDS011;43217;52.694;6.214;2024-01-07T06:27:44;7.55;;;6.20;;
57389;SDS011;43217;52.694;6.214;2024-01-07T06:30:09;7.15;;;6.20;;
57389;SDS011;43217;52.694;6.214;2024-01-07T06:32:36;6.55;;;5.90;;
57389;SDS011;43217;52.694;6.214;2024-01-07T06:35:01;6.03;;;5.43;;
57389;SDS011;43217;52.694;6.214;2024-01-07T06:37:30;6.00;;;5.47;;
57389;SDS011;43217;52.694;6.214;2024-01-07T06:39:56;6.10;;;5.50;;
57389;SDS011;43217;52.694;6.214;2024-01-07T06:42:23;5.68;;;5.18;;
57389;SDS011;43217;52.694;6.214;2024-01-07T06:44:49;6.50;;;5.20;;
57389;SDS011;43217;52.694;6.214;2024-01-07T06:47:14;6.60;;;4.97;;
57389;SDS011;43217;52.694;6.214;2024-01-07T06:49:40;5.50;;;4.90;;
57389;SDS011;43217;52.694;6.214;2024-01-07T06:52:06;5.45;;;4.93;;
57389;SDS011;43217;52.694;6.214;2024-01-07T06:54:32;5.05;;;4.65;;
57389;SDS011;43217;52.694;6.214;2024-01-07T06:56:58;5.60;;;5.03;;
57389;SDS011;43217;52.694;6.214;2024-01-07T06:59:23;5.18;;;4.70;;
57389;SDS011;43217;52.694;6.214;2024-01-07T07:01:49;6.53;;;4.93;;
57389;SDS011;43217;52.694;6.214;2024-01-07T07:04:14;5.43;;;4.88;;
57389;SDS011;43217;52.694;6.214;2024-01-07T07:06:40;5.80;;;4.72;;
57389;SDS011;43217;52.694;6.214;2024-01-07T07:09:06;6.32;;;4.60;;
57389;SDS011;43217;52.694;6.214;2024-01-07T07:11:31;5.32;;;4.70;;
57389;SDS011;43217;52.694;6.214;2024-01-07T07:13:57;5.20;;;4.70;;
57389;SDS011;43217;52.694;6.214;2024-01-07T07:16:23;6.57;;;4.53;;
57389;SDS011;43217;52.694;6.214;2024-01-07T07:18:48;5.88;;;4.30;;
57389;SDS011;43217;52.694;6.214;2024-01-07T07:21:14;5.82;;;4.25;;
57389;SDS011;43217;52.694;6.214;2024-01-07T07:23:39;5.65;;;3.80;;
57389;SDS011;43217;52.694;6.214;2024-01-07T07:26:06;5.85;;;4.03;;
57389;SDS011;43217;52.694;6.214;2024-01-07T07:28:33;6.95;;;4.00;;
57389;SDS011;43217;52.694;6.214;2024-01-07T07:30:58;4.95;;;3.75;;
57389;SDS011;43217;52.694;6.214;2024-01-07T07:33:24;4.80;;;3.72;;
57389;SDS011;43217;52.694;6.214;2024-01-07T07:35:50;5.28;;;4.65;;
57389;SDS011;43217;52.694;6.214;2024-01-07T07:38:15;4.63;;;4.10;;
57389;SDS011;43217;52.694;6.214;2024-01-07T07:40:41;3.92;;;3.47;;
57389;SDS011;43217;52.694;6.214;2024-01-07T07:43:07;4.18;;;3.78;;
57389;SDS011;43217;52.694;6.214;2024-01-07T07:45:33;4.47;;;3.97;;
57389;SDS011;43217;52.694;6.214;2024-01-07T07:47:59;4.75;;;4.07;;
57389;SDS011;43217;52.694;6.214;2024-01-07T07:50:25;4.60;;;3.70;;
57389;SDS011;43217;52.694;6.214;2024-01-07T07:52:50;4.95;;;4.00;;
57389;SDS011;43217;52.694;6.214;2024-01-07T07:55:16;4.32;;;3.55;;
57389;SDS011;43217;52.694;6.214;2024-01-07T07:57:41;3.97;;;3.40;;
57389;SDS011;43217;52.694;6.214;2024-01-07T08:00:07;4.13;;;3.50;;
57389;SDS011;43217;52.694;6.214;2024-01-07T08:02:36;3.80;;;3.40;;
57389;SDS011;43217;52.694;6.214;2024-01-07T08:05:01;3.92;;;3.30;;
57389;SDS011;43217;52.694;6.214;2024-01-07T08:07:27;4.50;;;3.65;;
57389;SDS011;43217;52.694;6.214;2024-01-07T08:09:53;4.82;;;3.47;;
57389;SDS011;43217;52.694;6.214;2024-01-07T08:12:18;3.95;;;3.55;;
57389;SDS011;43217;52.694;6.214;2024-01-07T08:14:44;4.47;;;3.47;;
57389;SDS011;43217;52.694;6.214;2024-01-07T08:17:09;4.50;;;3.20;;
57389;SDS011;43217;52.694;6.214;2024-01-07T08:19:35;4.88;;;4.25;;
57389;SDS011;43217;52.694;6.214;2024-01-07T08:22:01;3.50;;;3.20;;
57389;SDS011;43217;52.694;6.214;2024-01-07T08:24:27;3.92;;;3.10;;
57389;SDS011;43217;52.694;6.214;2024-01-07T08:26:52;4.18;;;3.78;;
57389;SDS011;43217;52.694;6.214;2024-01-07T08:29:18;4.57;;;3.15;;
57389;SDS011;43217;52.694;6.214;2024-01-07T08:31:43;3.65;;;3.17;;
57389;SDS011;43217;52.694;6.214;2024-01-07T08:34:09;4.22;;;3.10;;
57389;SDS011;43217;52.694;6.214;2024-01-07T08:36:35;3.72;;;3.17;;
57389;SDS011;43217;52.694;6.214;2024-01-07T08:39:00;3.67;;;3.38;;
57389;SDS011;43217;52.694;6.214;2024-01-07T08:41:26;3.97;;;2.90;;
57389;SDS011;43217;52.694;6.214;2024-01-07T08:43:51;3.28;;;3.00;;
57389;SDS011;43217;52.694;6.214;2024-01-07T08:46:19;3.50;;;2.85;;
57389;SDS011;43217;52.694;6.214;2024-01-07T08:48:45;3.70;;;3.22;;
57389;SDS011;43217;52.694;6.214;2024-01-07T08:51:12;3.50;;;3.20;;
57389;SDS011;43217;52.694;6.214;2024-01-07T08:53:37;3.88;;;3.13;;
57389;SDS011;43217;52.694;6.214;2024-01-07T08:56:03;3.13;;;2.80;;
57389;SDS011;43217;52.694;6.214;2024-01-07T08:58:29;4.28;;;2.97;;
57389;SDS011;43217;52.694;6.214;2024-01-07T09:00:54;3.15;;;2.65;;
57389;SDS011;43217;52.694;6.214;2024-01-07T09:03:20;5.32;;;3.20;;
57389;SDS011;43217;52.694;6.214;2024-01-07T09:05:45;3.35;;;2.55;;
57389;SDS011;43217;52.694;6.214;2024-01-07T09:08:11;3.70;;;2.78;;
57389;SDS011;43217;52.694;6.214;2024-01-07T09:10:39;3.83;;;2.45;;
57389;SDS011;43217;52.694;6.214;2024-01-07T09:13:05;4.10;;;2.60;;
57389;SDS011;43217;52.694;6.214;2024-01-07T09:15:31;2.72;;;2.35;;
57389;SDS011;43217;52.694;6.214;2024-01-07T09:17:56;3.50;;;2.83;;
57389;SDS011;43217;52.694;6.214;2024-01-07T09:20:22;4.68;;;4.07;;
57389;SDS011;43217;52.694;6.214;2024-01-07T09:22:48;4.57;;;3.30;;
57389;SDS011;43217;52.694;6.214;2024-01-07T09:25:14;4.13;;;2.67;;
57389;SDS011;43217;52.694;6.214;2024-01-07T09:27:39;4.53;;;3.00;;
57389;SDS011;43217;52.694;6.214;2024-01-07T09:30:05;4.68;;;2.60;;
57389;SDS011;43217;52.694;6.214;2024-01-07T09:32:31;3.33;;;2.67;;
57389;SDS011;43217;52.694;6.214;2024-01-07T09:34:57;3.17;;;2.97;;
57389;SDS011;43217;52.694;6.214;2024-01-07T09:37:23;3.45;;;3.15;;
57389;SDS011;43217;52.694;6.214;2024-01-07T09:39:48;2.97;;;2.42;;
57389;SDS011;43217;52.694;6.214;2024-01-07T09:42:18;3.35;;;2.65;;
57389;SDS011;43217;52.694;6.214;2024-01-07T09:44:44;4.22;;;3.67;;
57389;SDS011;43217;52.694;6.214;2024-01-07T09:47:10;3.33;;;2.50;;
57389;SDS011;43217;52.694;6.214;2024-01-07T09:49:37;11.90;;;10.45;;
57389;SDS011;43217;52.694;6.214;2024-01-07T09:52:04;4.68;;;3.03;;
57389;SDS011;43217;52.694;6.214;2024-01-07T09:54:30;3.65;;;2.40;;
57389;SDS011;43217;52.694;6.214;2024-01-07T09:57:02;3.90;;;2.30;;
57389;SDS011;43217;52.694;6.214;2024-01-07T09:59:31;5.22;;;3.95;;
57389;SDS011;43217;52.694;6.214;2024-01-07T10:01:57;5.00;;;2.67;;
57389;SDS011;43217;52.694;6.214;2024-01-07T10:04:23;5.50;;;4.05;;
57389;SDS011;43217;52.694;6.214;2024-01-07T10:06:49;3.58;;;2.80;;
57389;SDS011;43217;52.694;6.214;2024-01-07T10:09:15;4.03;;;2.97;;
57389;SDS011;43217;52.694;6.214;2024-01-07T10:11:43;3.70;;;3.15;;
57389;SDS011;43217;52.694;6.214;2024-01-07T10:14:09;3.53;;;3.22;;
57389;SDS011;43217;52.694;6.214;2024-01-07T10:16:35;3.53;;;2.17;;
57389;SDS011;43217;52.694;6.214;2024-01-07T10:19:00;2.70;;;2.50;;
57389;SDS011;43217;52.694;6.214;2024-01-07T10:21:26;5.28;;;4.22;;
57389;SDS011;43217;52.694;6.214;2024-01-07T10:24:10;3.58;;;2.95;;
57389;SDS011;43217;52.694;6.214;2024-01-07T10:26:37;2.30;;;2.03;;
57389;SDS011;43217;52.694;6.214;2024-01-07T10:29:04;4.88;;;3.30;;
57389;SDS011;43217;52.694;6.214;2024-01-07T10:31:30;3.55;;;2.88;;
57389;SDS011;43217;52.694;6.214;2024-01-07T10:33:57;3.05;;;2.85;;
57389;SDS011;43217;52.694;6.214;2024-01-07T10:36:22;2.90;;;1.95;;
57389;SDS011;43217;52.694;6.214;2024-01-07T10:38:49;3.05;;;2.13;;
57389;SDS011;43217;52.694;6.214;2024-01-07T10:41:16;2.60;;;2.40;;
57389;SDS011;43217;52.694;6.214;2024-01-07T10:43:46;2.15;;;2.00;;
57389;SDS011;43217;52.694;6.214;2024-01-07T10:46:13;2.55;;;2.10;;
57389;SDS011;43217;52.694;6.214;2024-01-07T10:48:43;3.28;;;2.38;;
57389;SDS011;43217;52.694;6.214;2024-01-07T10:51:12;4.70;;;3.58;;
57389;SDS011;43217;52.694;6.214;2024-01-07T10:53:39;4.20;;;2.58;;
57389;SDS011;43217;52.694;6.214;2024-01-07T10:56:09;3.85;;;2.13;;
57389;SDS011;43217;52.694;6.214;2024-01-07T10:58:37;6.68;;;5.47;;
57389;SDS011;43217;52.694;6.214;2024-01-07T11:01:04;2.60;;;2.17;;
57389;SDS011;43217;52.694;6.214;2024-01-07T11:03:40;4.32;;;2.17;;
57389;SDS011;43217;52.694;6.214;2024-01-07T11:06:20;2.97;;;2.40;;
57389;SDS011;43217;52.694;6.214;2024-01-07T11:12:01;4.05;;;2.28;;
57389;SDS011;43217;52.694;6.214;2024-01-07T11:17:07;2.80;;;1.50;;
57389;SDS011;43217;52.694;6.214;2024-01-07T11:19:37;2.00;;;1.55;;
57389;SDS011;43217;52.694;6.214;2024-01-07T11:24:52;3.20;;;1.70;;
57389;SDS011;43217;52.694;6.214;2024-01-07T11:27:22;1.77;;;1.50;;
57389;SDS011;43217;52.694;6.214;2024-01-07T11:29:55;2.00;;;1.80;;
57389;SDS011;43217;52.694;6.214;2024-01-07T11:32:22;2.72;;;1.77;;
57389;SDS011;43217;52.694;6.214;2024-01-07T11:34:50;3.33;;;2.05;;
57389;SDS011;43217;52.694;6.214;2024-01-07T11:37:18;1.90;;;1.80;;
57389;SDS011;43217;52.694;6.214;2024-01-07T11:39:44;2.90;;;1.98;;
57389;SDS011;43217;52.694;6.214;2024-01-07T11:42:10;4.30;;;1.80;;
57389;SDS011;43217;52.694;6.214;2024-01-07T11:44:51;2.15;;;1.90;;
57389;SDS011;43217;52.694;6.214;2024-01-07T11:47:19;3.15;;;2.42;;
57389;SDS011;43217;52.694;6.214;2024-01-07T11:49:46;1.90;;;1.80;;
57389;SDS011;43217;52.694;6.214;2024-01-07T11:52:14;2.80;;;1.95;;
57389;SDS011;43217;52.694;6.214;2024-01-07T11:54:40;3.42;;;2.58;;
57389;SDS011;43217;52.694;6.214;2024-01-07T11:57:09;3.78;;;2.70;;
57389;SDS011;43217;52.694;6.214;2024-01-07T11:59:36;2.42;;;1.98;;
57389;SDS011;43217;52.694;6.214;2024-01-07T12:02:02;2.42;;;1.90;;
57389;SDS011;43217;52.694;6.214;2024-01-07T12:04:33;2.30;;;2.10;;
57389;SDS011;43217;52.694;6.214;2024-01-07T12:06:59;2.90;;;2.28;;
57389;SDS011;43217;52.694;6.214;2024-01-07T12:09:25;3.20;;;2.38;;
57389;SDS011;43217;52.694;6.214;2024-01-07T12:11:51;4.10;;;2.75;;
57389;SDS011;43217;52.694;6.214;2024-01-07T12:14:18;2.88;;;2.13;;
57389;SDS011;43217;52.694;6.214;2024-01-07T12:16:44;4.00;;;2.70;;
57389;SDS011;43217;52.694;6.214;2024-01-07T12:19:10;4.25;;;2.83;;
57389;SDS011;43217;52.694;6.214;2024-01-07T12:21:37;2.40;;;2.00;;
57389;SDS011;43217;52.694;6.214;2024-01-07T12:24:03;3.85;;;2.35;;
57389;SDS011;43217;52.694;6.214;2024-01-07T12:26:29;3.63;;;2.88;;
57389;SDS011;43217;52.694;6.214;2024-01-07T12:28:57;4.00;;;2.50;;
57389;SDS011;43217;52.694;6.214;2024-01-07T12:31:32;4.25;;;3.03;;
57389;SDS011;43217;52.694;6.214;2024-01-07T12:33:58;3.42;;;2.45;;
57389;SDS011;43217;52.694;6.214;2024-01-07T12:36:24;3.22;;;2.10;;
57389;SDS011;43217;52.694;6.214;2024-01-07T12:38:51;4.35;;;3.75;;
57389;SDS011;43217;52.694;6.214;2024-01-07T12:41:19;2.58;;;2.38;;
57389;SDS011;43217;52.694;6.214;2024-01-07T12:43:46;2.13;;;1.90;;
57389;SDS011;43217;52.694;6.214;2024-01-07T12:46:11;2.55;;;2.35;;
57389;SDS011;43217;52.694;6.214;2024-01-07T12:48:37;4.10;;;2.58;;
57389;SDS011;43217;52.694;6.214;2024-01-07T12:51:02;2.92;;;2.58;;
57389;SDS011;43217;52.694;6.214;2024-01-07T12:53:28;2.63;;;2.42;;
57389;SDS011;43217;52.694;6.214;2024-01-07T12:55:54;2.88;;;2.25;;
57389;SDS011;43217;52.694;6.214;2024-01-07T12:58:20;4.85;;;3.20;;
57389;SDS011;43217;52.694;6.214;2024-01-07T13:00:46;13.50;;;8.40;;
57389;SDS011;43217;52.694;6.214;2024-01-07T13:03:12;2.83;;;2.50;;
57389;SDS011;43217;52.694;6.214;2024-01-07T13:05:44;3.35;;;2.60;;
57389;SDS011;43217;52.694;6.214;2024-01-07T13:08:11;3.72;;;2.50;;
57389;SDS011;43217;52.694;6.214;2024-01-07T13:10:38;3.13;;;2.45;;
57389;SDS011;43217;52.694;6.214;2024-01-07T13:13:03;3.63;;;2.90;;
57389;SDS011;43217;52.694;6.214;2024-01-07T13:15:29;8.88;;;6.10;;
57389;SDS011;43217;52.694;6.214;2024-01-07T13:17:54;6.93;;;5.55;;
57389;SDS011;43217;52.694;6.214;2024-01-07T13:20:20;2.58;;;2.38;;
57389;SDS011;43217;52.694;6.214;2024-01-07T13:22:46;2.60;;;2.33;;
57389;SDS011;43217;52.694;6.214;2024-01-07T13:25:12;3.72;;;3.17;;
57389;SDS011;43217;52.694;6.214;2024-01-07T13:27:37;3.33;;;2.90;;
57389;SDS011;43217;52.694;6.214;2024-01-07T13:30:04;3.03;;;2.83;;
57389;SDS011;43217;52.694;6.214;2024-01-07T13:32:31;5.40;;;3.40;;
57389;SDS011;43217;52.694;6.214;2024-01-07T13:35:01;4.90;;;4.13;;
57389;SDS011;43217;52.694;6.214;2024-01-07T13:37:27;5.18;;;4.03;;
57389;SDS011;43217;52.694;6.214;2024-01-07T13:39:53;13.23;;;7.63;;
57389;SDS011;43217;52.694;6.214;2024-01-07T13:42:18;4.10;;;3.55;;
57389;SDS011;43217;52.694;6.214;2024-01-07T13:44:44;5.47;;;4.45;;
57389;SDS011;43217;52.694;6.214;2024-01-07T13:47:11;4.03;;;3.60;;
57389;SDS011;43217;52.694;6.214;2024-01-07T13:49:39;4.68;;;3.80;;
57389;SDS011;43217;52.694;6.214;2024-01-07T13:52:05;5.10;;;4.10;;
57389;SDS011;43217;52.694;6.214;2024-01-07T13:54:31;5.93;;;4.22;;
57389;SDS011;43217;52.694;6.214;2024-01-07T13:56:56;10.38;;;5.53;;
57389;SDS011;43217;52.694;6.214;2024-01-07T13:59:22;9.75;;;6.43;;
57389;SDS011;43217;52.694;6.214;2024-01-07T14:01:48;7.88;;;5.50;;
57389;SDS011;43217;52.694;6.214;2024-01-07T14:04:14;8.82;;;5.90;;
57389;SDS011;43217;52.694;6.214;2024-01-07T14:06:40;8.63;;;5.60;;
57389;SDS011;43217;52.694;6.214;2024-01-07T14:09:05;5.45;;;4.93;;
57389;SDS011;43217;52.694;6.214;2024-01-07T14:11:33;8.60;;;6.93;;
57389;SDS011;43217;52.694;6.214;2024-01-07T14:13:59;5.93;;;4.20;;
57389;SDS011;43217;52.694;6.214;2024-01-07T14:16:26;6.97;;;5.43;;
57389;SDS011;43217;52.694;6.214;2024-01-07T14:18:51;5.93;;;4.50;;
57389;SDS011;43217;52.694;6.214;2024-01-07T14:21:17;4.88;;;3.92;;
57389;SDS011;43217;52.694;6.214;2024-01-07T14:23:43;5.50;;;4.25;;
57389;SDS011;43217;52.694;6.214;2024-01-07T14:26:08;5.68;;;5.15;;
57389;SDS011;43217;52.694;6.214;2024-01-07T14:28:34;6.25;;;5.57;;
57389;SDS011;43217;52.694;6.214;2024-01-07T14:31:00;5.90;;;5.30;;
57389;SDS011;43217;52.694;6.214;2024-01-07T14:33:26;6.53;;;4.82;;
57389;SDS011;43217;52.694;6.214;2024-01-07T14:35:52;7.43;;;5.57;;
57389;SDS011;43217;52.694;6.214;2024-01-07T14:38:18;6.85;;;5.07;;
57389;SDS011;43217;52.694;6.214;2024-01-07T14:40:44;7.30;;;5.10;;